GRU weather

Guarulhos - Governador André Franco Montoro International Airport
São Paulo, São Paulo, Brazil

Public forecast

Using degrees Celsius for public forecast. Weather courtesy of forecast.io.

METAR (pilot weather report)

Retrieved 2018/11/16 08:00 UTC (58 minutes ago):

SBGR 160800Z 16004KT 9000 OVC009 19/19 Q1018

TAF (pilot weather forecast)

Retrieved 2018/11/16 06:27 UTC (3 hours ago):

TAF TAF SBGR 160121Z 1606/1712 15005KT 6000 BKN009TN18/1608Z TX23/1618Z PROB30 1606/1611 3000 DZ BR BKN005 BECMG 1611/1613 7000 BKN012 PROB30 1618/1622 5000 DZ BR BKN009 BECMG 1622/1624 BKN010 BECMG 1702/1704 10005KT PROB30 1708/1711 3000 BR BKN007 RMK PHM